Time;durP1;ratioP1;P1;durP2;ratioP2;P2;SDS_P1;SDS_P2;PMS_P1;PMS_P2;Temp;Humidity;BMP_temperature;BMP_pressure;BME280_temperature;BME280_humidity;BME280_pressure;Samples;Min_cycle;Max_cycle;Signal;HPM_P1;HPM_P2
2022/05/11 00:01:26;;;;;;;6.28;3.72;;;19.30;99.90;;;;;;5032993;28;20167;-48
2022/05/11 00:03:52;;;;;;;8.95;3.97;;;19.20;99.90;;;;;;5032853;28;20227;-48
2022/05/11 00:06:18;;;;;;;6.95;3.70;;;19.30;99.90;;;;;;5033199;28;20232;-48
2022/05/11 00:08:43;;;;;;;9.00;4.40;;;19.30;99.90;;;;;;5032829;28;20194;-49
2022/05/11 00:11:09;;;;;;;7.43;3.70;;;19.30;99.90;;;;;;5033117;28;20636;-48
2022/05/11 00:13:34;;;;;;;4.25;3.63;;;19.40;99.90;;;;;;5032757;28;20171;-48
2022/05/11 00:16:00;;;;;;;7.70;3.60;;;19.30;99.90;;;;;;5032921;28;20707;-48
2022/05/11 00:18:26;;;;;;;6.63;4.38;;;19.30;99.90;;;;;;5032651;28;20171;-49
2022/05/11 00:20:51;;;;;;;4.78;4.03;;;19.30;99.90;;;;;;5032663;28;20178;-49
2022/05/11 00:23:17;;;;;;;7.07;3.83;;;19.30;99.90;;;;;;5032563;28;20194;-51
2022/05/11 00:25:44;;;;;;;6.78;4.03;;;19.30;99.90;;;;;;5032638;28;20621;-47
2022/05/11 00:28:10;;;;;;;7.88;4.57;;;19.20;99.90;;;;;;5032246;28;20172;-48
2022/05/11 00:30:36;;;;;;;5.25;4.00;;;19.20;99.90;;;;;;5032463;28;20201;-49
2022/05/11 00:33:02;;;;;;;5.68;4.35;;;19.20;99.90;;;;;;5032471;28;20629;-48
2022/05/11 00:35:30;;;;;;;5.65;4.53;;;19.30;99.90;;;;;;5032643;28;20547;-49
2022/05/11 00:37:56;;;;;;;12.00;4.07;;;19.20;99.90;;;;;;5032354;28;20184;-47
2022/05/11 00:40:23;;;;;;;5.25;3.35;;;19.20;99.90;;;;;;5032333;28;20168;-49
2022/05/11 00:42:49;;;;;;;10.32;4.75;;;19.20;99.90;;;;;;5032354;28;20164;-48
2022/05/11 00:45:16;;;;;;;8.45;4.20;;;19.20;99.90;;;;;;5032239;28;20163;-47
2022/05/11 00:47:51;;;;;;;6.07;3.72;;;19.20;99.90;;;;;;5032193;28;20195;-47
2022/05/11 00:50:23;;;;;;;9.82;4.13;;;19.10;99.90;;;;;;5032146;28;20213;-49
2022/05/11 00:52:59;;;;;;;7.10;4.10;;;19.10;99.90;;;;;;5032237;28;20164;-49
2022/05/11 00:55:30;;;;;;;5.82;3.70;;;19.10;99.90;;;;;;5030902;28;20179;-49
2022/05/11 00:58:07;;;;;;;8.38;4.05;;;19.20;99.90;;;;;;5030854;28;20171;-53
2022/05/11 01:00:32;;;;;;;5.95;3.58;;;19.10;99.90;;;;;;5031959;28;20174;-51
2022/05/11 01:03:01;;;;;;;5.80;3.72;;;19.10;99.90;;;;;;5031907;28;20219;-54
2022/05/11 01:05:27;;;;;;;7.35;4.38;;;19.00;99.90;;;;;;5032101;28;20163;-54
2022/05/11 01:07:54;;;;;;;6.38;4.32;;;19.00;99.90;;;;;;5031930;28;20171;-54
2022/05/11 01:10:20;;;;;;;7.20;3.85;;;19.00;99.90;;;;;;5031824;28;20571;-53
2022/05/11 01:12:50;;;;;;;6.68;4.05;;;18.90;99.90;;;;;;5031924;28;20174;-53
2022/05/11 01:15:18;;;;;;;11.35;4.28;;;18.90;99.90;;;;;;5032165;28;20171;-53
2022/05/11 01:17:43;;;;;;;6.90;3.72;;;18.80;99.90;;;;;;5032140;28;20181;-49
2022/05/11 01:20:21;;;;;;;6.72;3.63;;;18.80;99.90;;;;;;5032498;28;20250;-52
2022/05/11 01:23:11;;;;;;;5.03;3.80;;;18.80;99.90;;;;;;5030554;28;20270;-53
2022/05/11 01:25:36;;;;;;;6.18;4.15;;;18.70;99.90;;;;;;5032367;28;20225;-53
2022/05/11 01:28:12;;;;;;;5.43;3.55;;;18.80;99.90;;;;;;5032058;28;20171;-54
2022/05/11 01:30:59;;;;;;;7.18;4.10;;;18.80;99.90;;;;;;5032336;28;20194;-54
2022/05/11 01:33:24;;;;;;;6.10;3.10;;;18.70;99.90;;;;;;5031718;28;20648;-52
2022/05/11 01:36:15;;;;;;;6.53;4.15;;;18.70;99.90;;;;;;5031821;28;20182;-53
2022/05/11 01:38:55;;;;;;;5.53;3.13;;;18.70;99.90;;;;;;5031599;28;20233;-50
2022/05/11 01:41:31;;;;;;;8.65;3.40;;;18.60;99.90;;;;;;5034874;28;20516;-52
2022/05/11 01:43:57;;;;;;;7.45;3.45;;;18.60;99.90;;;;;;5035629;28;20167;-53
2022/05/11 01:46:23;;;;;;;4.78;3.25;;;18.50;99.90;;;;;;5035579;28;20171;-54
2022/05/11 01:48:49;;;;;;;7.32;3.38;;;18.50;99.90;;;;;;5035479;28;20214;-52
2022/05/11 01:51:17;;;;;;;5.60;4.00;;;18.40;99.90;;;;;;5035451;28;20198;-51
2022/05/11 01:53:44;;;;;;;4.85;3.10;;;18.40;99.90;;;;;;5035263;28;20182;-52
2022/05/11 01:56:10;;;;;;;9.50;3.85;;;18.40;99.90;;;;;;5035547;28;20517;-53
2022/05/11 01:58:36;;;;;;;6.18;3.92;;;18.50;99.90;;;;;;5035753;28;20224;-53
2022/05/11 02:01:03;;;;;;;8.70;4.00;;;18.40;99.90;;;;;;5035306;28;20259;-49
2022/05/11 02:03:28;;;;;;;5.85;3.28;;;18.40;99.90;;;;;;5035040;28;20615;-51
2022/05/11 02:08:43;;;;;;;7.18;3.72;;;18.40;99.90;;;;;;5035305;28;20206;-52
2022/05/11 02:11:09;;;;;;;5.88;3.40;;;18.40;99.90;;;;;;5035654;28;20215;-53
2022/05/11 02:13:35;;;;;;;6.25;3.95;;;18.40;99.90;;;;;;5035040;28;20167;-50
2022/05/11 02:16:01;;;;;;;5.90;3.25;;;18.20;99.90;;;;;;5035027;28;20178;-50
2022/05/11 02:18:26;;;;;;;7.00;3.25;;;18.20;99.90;;;;;;5035039;28;20198;-50
2022/05/11 02:20:52;;;;;;;3.50;3.20;;;18.20;99.90;;;;;;5034067;28;20218;-49
2022/05/11 02:23:19;;;;;;;5.28;3.80;;;18.10;99.90;;;;;;5034880;28;20178;-49
2022/05/11 02:25:46;;;;;;;9.75;3.42;;;18.20;99.90;;;;;;5034827;28;20189;-49
2022/05/11 02:28:13;;;;;;;4.97;3.42;;;18.10;99.90;;;;;;5034836;28;20171;-48
2022/05/11 02:30:40;;;;;;;5.75;3.10;;;18.10;99.90;;;;;;5034931;28;20610;-49
2022/05/11 02:33:06;;;;;;;8.77;3.40;;;18.10;99.90;;;;;;5035253;28;20198;-49
2022/05/11 02:35:31;;;;;;;7.22;3.80;;;18.00;99.90;;;;;;5034606;28;20617;-48
2022/05/11 02:38:02;;;;;;;4.63;2.88;;;18.00;99.90;;;;;;5034926;28;20186;-49
2022/05/11 02:40:31;;;;;;;4.78;2.92;;;17.90;99.90;;;;;;5034621;28;20285;-48
2022/05/11 02:42:58;;;;;;;4.65;3.30;;;18.00;99.90;;;;;;5034680;28;20259;-49
2022/05/11 02:45:25;;;;;;;5.03;3.42;;;18.00;99.90;;;;;;5034452;28;20176;-48
2022/05/11 02:47:52;;;;;;;8.10;3.83;;;18.00;99.90;;;;;;5034379;28;20177;-49
2022/05/11 02:50:26;;;;;;;5.72;3.05;;;17.90;99.90;;;;;;5034176;28;20213;-51
2022/05/11 02:52:52;;;;;;;5.60;3.45;;;17.80;99.90;;;;;;5033490;28;20170;-48
2022/05/11 02:55:18;;;;;;;5.32;3.40;;;17.80;99.90;;;;;;5034294;28;20543;-48
2022/05/11 02:57:44;;;;;;;8.57;3.53;;;17.80;99.90;;;;;;5034268;28;20167;-48
2022/05/11 03:00:13;;;;;;;8.05;3.85;;;17.80;99.90;;;;;;5034529;28;20179;-48
2022/05/11 03:02:38;;;;;;;7.30;3.60;;;17.80;99.90;;;;;;5034520;28;20251;-48
2022/05/11 03:05:05;;;;;;;4.82;3.63;;;17.80;99.90;;;;;;5034061;28;20214;-48
2022/05/11 03:07:31;;;;;;;6.30;3.60;;;17.80;99.90;;;;;;5034058;28;20159;-49
2022/05/11 03:09:57;;;;;;;7.50;3.80;;;17.80;99.90;;;;;;5033930;28;20213;-49
2022/05/11 03:12:22;;;;;;;5.50;3.00;;;17.80;99.90;;;;;;5033949;28;20176;-48
2022/05/11 03:14:54;;;;;;;4.50;3.40;;;17.80;99.90;;;;;;5033936;28;20182;-47
2022/05/11 03:17:20;;;;;;;7.15;3.53;;;17.80;99.90;;;;;;5034065;28;20174;-49
2022/05/11 03:19:46;;;;;;;7.20;3.08;;;17.70;99.90;;;;;;5033846;28;20171;-48
2022/05/11 03:22:12;;;;;;;9.32;3.97;;;17.70;99.90;;;;;;5033704;28;20171;-47
2022/05/11 03:24:38;;;;;;;4.72;3.47;;;17.70;99.90;;;;;;5034118;28;20241;-49
2022/05/11 03:27:04;;;;;;;5.38;3.20;;;17.70;99.90;;;;;;5033717;28;20195;-50
2022/05/11 03:29:30;;;;;;;5.57;3.13;;;17.70;99.90;;;;;;5033664;28;20214;-48
2022/05/11 03:34:41;;;;;;;10.25;4.10;;;17.60;99.90;;;;;;5034048;28;20698;-48
2022/05/11 03:37:10;;;;;;;9.80;4.47;;;17.60;99.90;;;;;;5034095;28;20180;-48
2022/05/11 03:39:36;;;;;;;5.70;4.30;;;17.60;99.90;;;;;;5033745;28;20172;-48
2022/05/11 03:42:04;;;;;;;9.68;4.50;;;17.50;99.90;;;;;;5033635;28;20167;-48
2022/05/11 03:44:30;;;;;;;9.00;4.50;;;17.40;99.90;;;;;;5033585;28;20179;-49
2022/05/11 03:46:55;;;;;;;9.85;5.22;;;17.50;99.90;;;;;;5033235;28;20170;-48
2022/05/11 03:49:21;;;;;;;8.32;4.82;;;17.50;99.90;;;;;;5033224;28;20252;-49
2022/05/11 03:51:47;;;;;;;7.95;5.05;;;17.50;99.90;;;;;;5033232;28;20539;-48
2022/05/11 03:54:13;;;;;;;6.65;4.90;;;17.50;99.90;;;;;;5033085;28;20227;-49
2022/05/11 03:56:39;;;;;;;7.82;5.18;;;17.50;99.90;;;;;;5033363;28;20656;-49
2022/05/11 03:59:04;;;;;;;10.57;5.20;;;17.40;99.90;;;;;;5033122;28;20174;-48
2022/05/11 04:01:30;;;;;;;11.98;5.72;;;17.50;99.90;;;;;;5031804;28;20213;-49
2022/05/11 04:03:56;;;;;;;11.05;6.18;;;17.40;99.90;;;;;;5032798;28;20273;-49
2022/05/11 04:06:21;;;;;;;12.18;6.10;;;17.40;99.90;;;;;;5033214;28;20186;-50
2022/05/11 04:08:47;;;;;;;10.77;6.22;;;17.20;99.90;;;;;;5032873;28;20215;-49
2022/05/11 04:11:12;;;;;;;10.23;5.57;;;17.20;99.90;;;;;;5032887;28;20183;-51
2022/05/11 04:13:40;;;;;;;13.50;6.90;;;17.30;99.90;;;;;;5033102;28;20171;-49
2022/05/11 04:16:07;;;;;;;14.57;6.43;;;17.30;99.90;;;;;;5033439;28;20171;-50
2022/05/11 04:18:33;;;;;;;12.15;6.75;;;17.30;99.90;;;;;;5032765;28;20187;-49
2022/05/11 04:20:59;;;;;;;12.52;6.28;;;17.30;99.90;;;;;;5032929;28;20175;-48
2022/05/11 04:23:24;;;;;;;14.10;7.10;;;17.30;99.90;;;;;;5032673;28;20515;-49
2022/05/11 04:25:50;;;;;;;12.60;6.88;;;17.30;99.90;;;;;;5032613;28;20167;-49
2022/05/11 04:28:15;;;;;;;12.27;6.97;;;17.40;99.90;;;;;;5032467;28;20164;-49
2022/05/11 04:30:41;;;;;;;10.57;6.18;;;17.40;99.90;;;;;;5032451;28;20172;-49
2022/05/11 04:33:08;;;;;;;15.73;6.65;;;17.50;99.90;;;;;;5032909;28;20167;-54
2022/05/11 04:35:34;;;;;;;13.95;6.78;;;17.60;99.90;;;;;;5032483;28;20668;-53
2022/05/11 04:38:04;;;;;;;14.27;6.30;;;17.70;99.90;;;;;;5032429;28;20167;-54
2022/05/11 04:40:31;;;;;;;12.75;6.88;;;17.50;99.90;;;;;;5032396;28;20163;-51
2022/05/11 04:42:56;;;;;;;13.45;6.53;;;17.60;99.90;;;;;;5032268;28;20171;-53
2022/05/11 04:45:22;;;;;;;12.98;6.38;;;17.60;99.90;;;;;;5032206;28;20250;-52
2022/05/11 04:47:47;;;;;;;14.02;7.97;;;17.50;99.90;;;;;;5032338;28;20258;-49
2022/05/11 04:50:15;;;;;;;12.88;7.65;;;17.60;99.90;;;;;;5032186;28;20222;-49
2022/05/11 04:52:41;;;;;;;14.20;6.95;;;17.60;99.90;;;;;;5032215;28;20160;-48
2022/05/11 04:55:09;;;;;;;11.13;7.28;;;17.50;99.90;;;;;;5032633;28;20259;-50
2022/05/11 04:57:35;;;;;;;10.57;6.60;;;17.50;99.90;;;;;;5032499;28;20251;-49
2022/05/11 05:00:01;;;;;;;10.07;6.63;;;17.60;99.90;;;;;;5032023;28;20191;-48
2022/05/11 05:02:29;;;;;;;16.58;7.43;;;17.60;99.90;;;;;;5030576;28;20195;-49
2022/05/11 05:04:59;;;;;;;12.80;7.32;;;17.60;99.90;;;;;;5032065;28;20197;-49
2022/05/11 05:07:25;;;;;;;13.98;7.25;;;17.60;99.90;;;;;;5032363;28;20206;-48
2022/05/11 05:09:51;;;;;;;13.48;6.93;;;17.80;99.90;;;;;;5031846;28;20211;-48
2022/05/11 05:12:17;;;;;;;14.20;7.45;;;17.90;99.90;;;;;;5032027;28;20262;-48
2022/05/11 05:14:43;;;;;;;19.05;8.13;;;18.00;99.90;;;;;;5033077;28;20171;-47
2022/05/11 05:17:10;;;;;;;12.52;7.93;;;18.10;99.90;;;;;;5039116;28;20166;-48
2022/05/11 05:19:41;;;;;;;14.98;7.82;;;18.20;99.90;;;;;;5039046;28;20175;-50
2022/05/11 05:22:07;;;;;;;12.63;7.57;;;18.20;99.90;;;;;;5038973;28;20163;-50
2022/05/11 05:24:33;;;;;;;15.32;7.82;;;18.30;99.90;;;;;;5038495;28;20509;-48
2022/05/11 05:27:00;;;;;;;12.40;7.60;;;18.30;99.90;;;;;;5038522;28;20625;-49
2022/05/11 05:32:10;;;;;;;11.27;7.53;;;18.30;99.90;;;;;;5038636;28;20216;-49
2022/05/11 05:34:35;;;;;;;16.38;8.07;;;17.50;99.90;;;;;;5038763;28;20167;-52
2022/05/11 05:37:01;;;;;;;12.10;7.50;;;18.30;99.90;;;;;;5038182;28;20171;-49
2022/05/11 05:39:27;;;;;;;15.43;7.80;;;18.40;99.90;;;;;;5038144;28;20171;-48
2022/05/11 05:41:52;;;;;;;19.10;10.43;;;18.50;99.90;;;;;;5038165;28;20613;-49
2022/05/11 05:44:18;;;;;;;22.42;9.82;;;18.40;99.90;;;;;;5038171;28;20179;-49
2022/05/11 05:46:45;;;;;;;25.33;10.70;;;18.50;99.90;;;;;;5037985;28;20675;-49
2022/05/11 05:49:12;;;;;;;15.90;9.85;;;18.60;99.90;;;;;;5038077;28;20233;-48
2022/05/11 05:51:39;;;;;;;18.45;10.05;;;18.70;99.90;;;;;;5038528;28;20167;-48
2022/05/11 05:54:06;;;;;;;21.45;9.73;;;18.70;99.90;;;;;;5038713;28;20171;-48
2022/05/11 05:56:32;;;;;;;18.88;8.93;;;18.70;99.90;;;;;;5038086;28;20167;-48
2022/05/11 05:59:01;;;;;;;13.55;7.88;;;18.80;99.90;;;;;;5038156;28;20623;-48
2022/05/11 06:01:28;;;;;;;17.67;6.97;;;18.80;99.90;;;;;;5038065;28;20242;-48
2022/05/11 06:03:53;;;;;;;11.50;7.30;;;18.80;99.90;;;;;;5036567;28;20774;-48
2022/05/11 06:06:21;;;;;;;14.60;7.63;;;18.80;99.90;;;;;;5038069;28;20269;-48
2022/05/11 06:08:46;;;;;;;15.48;8.27;;;18.80;99.90;;;;;;5037920;28;20274;-48
2022/05/11 06:11:12;;;;;;;13.10;7.47;;;18.80;99.90;;;;;;5038019;28;20270;-49
2022/05/11 06:13:38;;;;;;;11.80;7.30;;;18.80;99.90;;;;;;5038304;28;20178;-49
2022/05/11 06:16:14;;;;;;;15.73;7.28;;;19.00;99.90;;;;;;5038183;28;20221;-48
2022/05/11 06:18:41;;;;;;;15.25;6.30;;;19.00;99.90;;;;;;5038178;28;20205;-47
2022/05/11 06:21:08;;;;;;;13.90;6.68;;;19.00;99.90;;;;;;5038095;28;20175;-48
2022/05/11 06:23:35;;;;;;;13.43;7.53;;;19.20;99.90;;;;;;5037607;28;20520;-48
2022/05/11 06:26:01;;;;;;;13.73;6.65;;;19.20;99.90;;;;;;5037087;28;20195;-52
2022/05/11 06:28:27;;;;;;;15.48;6.28;;;19.30;99.90;;;;;;5033839;28;20199;-46
2022/05/11 06:30:53;;;;;;;12.23;5.88;;;19.40;99.90;;;;;;5050524;28;20233;-51
2022/05/11 06:33:18;;;;;;;13.55;5.90;;;19.50;99.90;;;;;;5053077;28;20179;-45
2022/05/11 06:35:45;;;;;;;7.30;5.05;;;19.50;99.90;;;;;;5053173;28;20254;-49
2022/05/11 06:38:11;;;;;;;11.90;6.07;;;19.60;99.90;;;;;;5053317;28;20170;-51
2022/05/11 06:40:37;;;;;;;13.25;5.93;;;19.70;99.90;;;;;;5053440;28;20174;-50
2022/05/11 06:43:04;;;;;;;15.60;5.30;;;19.60;99.90;;;;;;5053074;28;20178;-53
2022/05/11 06:45:30;;;;;;;12.30;5.53;;;19.60;99.90;;;;;;5053023;28;20167;-50
2022/05/11 06:47:56;;;;;;;13.63;6.47;;;19.80;99.90;;;;;;5051380;28;20198;-53
2022/05/11 06:50:24;;;;;;;13.13;5.82;;;19.90;99.90;;;;;;5052856;28;20237;-47
2022/05/11 06:52:51;;;;;;;14.80;5.40;;;19.90;99.90;;;;;;5053003;28;20158;-48
2022/05/11 07:00:45;;;;;;;13.75;5.97;;;20.00;99.90;;;;;;5053002;28;20940;-46
2022/05/11 07:03:11;;;;;;;19.75;5.57;;;20.10;99.90;;;;;;5052551;28;20727;-47
2022/05/11 07:05:37;;;;;;;9.13;5.35;;;20.20;99.90;;;;;;5052947;28;20171;-47
2022/05/11 07:08:03;;;;;;;13.98;6.20;;;20.40;99.90;;;;;;5052740;28;20175;-47
2022/05/11 07:10:31;;;;;;;17.67;6.05;;;20.50;99.90;;;;;;5052554;28;20229;-48
2022/05/11 07:12:57;;;;;;;12.07;5.25;;;20.40;99.90;;;;;;5052638;28;20246;-48
2022/05/11 07:15:24;;;;;;;10.38;5.53;;;20.50;99.90;;;;;;5052825;28;20611;-47
2022/05/11 07:17:59;;;;;;;10.13;4.97;;;20.80;99.90;;;;;;5052743;28;20174;-48
2022/05/11 07:20:35;;;;;;;12.20;5.50;;;21.10;99.90;;;;;;5052460;28;20530;-48
2022/05/11 07:23:02;;;;;;;10.35;4.15;;;21.20;99.90;;;;;;5052575;28;20233;-48
2022/05/11 07:25:28;;;;;;;7.35;3.20;;;21.10;99.90;;;;;;5052602;28;20175;-48
2022/05/11 07:27:54;;;;;;;5.70;2.92;;;21.10;99.90;;;;;;5052578;28;20535;-47
2022/05/11 07:30:26;;;;;;;3.78;2.50;;;21.10;99.90;;;;;;5052379;28;20210;-51
2022/05/11 07:32:51;;;;;;;4.68;2.33;;;21.10;99.90;;;;;;5052619;28;20167;-51
2022/05/11 07:35:17;;;;;;;4.70;2.38;;;21.20;99.90;;;;;;5052225;28;20174;-50
2022/05/11 07:37:46;;;;;;;5.57;2.47;;;21.30;99.90;;;;;;5051953;28;20312;-53
2022/05/11 07:40:12;;;;;;;2.40;2.20;;;21.30;99.90;;;;;;5052270;28;20167;-52
2022/05/11 07:42:38;;;;;;;3.90;2.10;;;21.40;99.90;;;;;;5051355;28;20179;-53
2022/05/11 07:45:04;;;;;;;2.53;2.10;;;21.50;99.90;;;;;;5052157;28;20181;-53
2022/05/11 07:47:29;;;;;;;5.60;2.28;;;21.40;99.90;;;;;;5052010;28;20198;-54
2022/05/11 07:49:55;;;;;;;2.60;2.33;;;21.50;99.90;;;;;;5051619;28;20214;-54
2022/05/11 07:52:21;;;;;;;5.90;2.80;;;21.50;99.90;;;;;;5051786;28;20250;-52
2022/05/11 07:54:46;;;;;;;4.63;2.67;;;21.50;99.90;;;;;;5051805;28;20219;-51
2022/05/11 07:59:57;;;;;;;5.90;2.42;;;21.70;99.90;;;;;;5051636;28;20658;-52
2022/05/11 08:02:28;;;;;;;4.47;2.03;;;21.70;99.90;;;;;;5051816;28;20175;-50
2022/05/11 08:04:57;;;;;;;4.72;2.33;;;21.80;99.90;;;;;;5051535;28;20198;-53
2022/05/11 08:07:26;;;;;;;6.07;2.38;;;21.70;99.90;;;;;;5051766;28;20174;-50
2022/05/11 08:09:52;;;;;;;5.05;2.10;;;21.80;99.90;;;;;;5051695;28;20573;-51
2022/05/11 08:12:18;;;;;;;3.42;1.65;;;21.90;99.90;;;;;;5051709;28;20408;-50
2022/05/11 08:14:44;;;;;;;4.90;2.35;;;21.90;99.90;;;;;;5051527;28;20174;-52
2022/05/11 08:17:09;;;;;;;3.50;2.00;;;21.90;99.90;;;;;;5051749;28;20186;-53
2022/05/11 08:19:37;;;;;;;6.40;2.33;;;22.00;99.90;;;;;;5051644;28;20170;-53
2022/05/11 08:22:04;;;;;;;2.85;2.20;;;22.10;99.90;;;;;;5051464;28;20181;-53
2022/05/11 08:24:31;;;;;;;3.63;2.53;;;22.20;99.90;;;;;;5051491;28;20167;-48
2022/05/11 08:26:56;;;;;;;3.15;2.30;;;22.30;99.90;;;;;;5050181;28;20167;-48
2022/05/11 08:34:52;;;;;;;5.45;3.03;;;22.20;99.90;;;;;;5051262;28;20181;-50
2022/05/11 08:37:18;;;;;;;4.50;3.20;;;22.40;99.90;;;;;;5051366;28;20170;-47
2022/05/11 08:39:44;;;;;;;5.22;2.97;;;22.40;99.90;;;;;;5050942;28;20628;-48
2022/05/11 08:42:11;;;;;;;3.33;2.75;;;22.40;99.90;;;;;;5049933;28;20182;-46
2022/05/11 08:44:43;;;;;;;6.13;3.20;;;22.60;99.90;;;;;;5051209;28;20690;-47
2022/05/11 08:47:39;;;;;;;6.15;2.85;;;22.50;99.90;;;;;;5050992;28;20201;-46
2022/05/11 08:50:17;;;;;;;5.75;3.10;;;22.70;99.90;;;;;;5050201;28;20578;-46
2022/05/11 08:53:18;;;;;;;5.47;2.78;;;22.80;99.90;;;;;;5050844;28;20155;-47
2022/05/11 08:55:47;;;;;;;8.05;2.78;;;22.70;99.90;;;;;;5044422;28;20292;-47
2022/05/11 08:58:23;;;;;;;6.47;2.67;;;22.90;99.90;;;;;;5050523;28;20658;-47
2022/05/11 09:00:52;;;;;;;5.07;3.30;;;23.00;99.90;;;;;;5050960;28;20186;-47
2022/05/11 09:03:31;;;;;;;4.93;3.08;;;23.10;99.90;;;;;;5050449;28;20221;-48
2022/05/11 09:06:00;;;;;;;3.45;3.20;;;23.00;99.90;;;;;;5050841;28;20174;-48
2022/05/11 09:08:26;;;;;;;6.68;3.15;;;23.10;99.90;;;;;;5050353;28;20162;-48
2022/05/11 09:10:52;;;;;;;7.13;3.03;;;23.10;99.90;;;;;;5050045;28;20532;-48
2022/05/11 09:13:20;;;;;;;6.20;2.80;;;23.20;99.90;;;;;;5050622;28;20217;-48
2022/05/11 09:15:46;;;;;;;4.80;3.10;;;23.20;99.90;;;;;;5050852;28;20170;-49
2022/05/11 09:18:12;;;;;;;4.68;3.45;;;23.20;99.90;;;;;;5050688;28;20167;-48
2022/05/11 09:20:47;;;;;;;6.60;3.60;;;23.30;99.90;;;;;;5050926;28;20178;-47
2022/05/11 09:23:12;;;;;;;6.28;3.78;;;23.30;99.90;;;;;;5050688;28;20234;-48
2022/05/11 09:26:09;;;;;;;5.05;3.38;;;23.30;99.90;;;;;;5050898;28;20577;-47
2022/05/11 09:28:40;;;;;;;4.75;3.58;;;23.60;99.90;;;;;;5050706;28;20162;-48
2022/05/11 09:31:06;;;;;;;6.93;3.88;;;23.50;99.90;;;;;;5050406;28;20182;-48
2022/05/11 09:33:34;;;;;;;5.28;3.80;;;23.70;99.90;;;;;;5050933;28;20232;-47
2022/05/11 09:36:03;;;;;;;8.93;3.72;;;23.70;99.90;;;;;;5050355;28;20198;-48
2022/05/11 09:38:33;;;;;;;3.92;3.33;;;23.70;99.90;;;;;;5050371;28;20182;-47
2022/05/11 09:41:19;;;;;;;8.32;3.42;;;23.60;99.90;;;;;;5050621;28;20300;-48
2022/05/11 09:43:50;;;;;;;9.32;4.32;;;23.80;99.90;;;;;;5050340;28;20171;-46
2022/05/11 09:46:20;;;;;;;5.20;3.70;;;23.90;99.90;;;;;;5050633;28;20182;-51
2022/05/11 09:49:17;;;;;;;9.00;4.82;;;24.00;99.90;;;;;;5050390;28;20186;-46
2022/05/11 09:51:45;;;;;;;8.93;4.32;;;23.90;99.90;;;;;;5050407;28;20174;-49
2022/05/11 09:54:42;;;;;;;10.52;4.07;;;23.50;99.90;;;;;;5050252;28;20590;-48
2022/05/11 09:57:13;;;;;;;6.55;3.95;;;23.60;99.90;;;;;;5050461;28;20163;-48
2022/05/11 09:59:42;;;;;;;6.72;4.43;;;23.70;99.90;;;;;;5050625;28;20574;-48
2022/05/11 10:02:27;;;;;;;9.57;5.00;;;23.70;99.90;;;;;;5052932;28;20170;-50
2022/05/11 10:05:14;;;;;;;8.43;4.53;;;23.60;99.90;;;;;;5054244;28;20218;-48
2022/05/11 10:07:51;;;;;;;10.55;4.22;;;24.10;99.90;;;;;;5054304;28;20657;-48
2022/05/11 10:10:36;;;;;;;7.40;4.05;;;24.10;99.90;;;;;;5053842;28;20220;-49
2022/05/11 10:13:23;;;;;;;6.22;3.45;;;24.10;99.90;;;;;;5052473;28;20701;-49
2022/05/11 10:21:53;;;;;;;6.53;3.80;;;24.00;99.90;;;;;;5052112;28;20193;-45
2022/05/11 10:24:37;;;;;;;6.78;3.20;;;24.40;99.90;;;;;;5053720;28;20181;-49
2022/05/11 10:27:24;;;;;;;6.25;3.35;;;24.50;99.90;;;;;;5053935;28;20197;-51
2022/05/11 10:30:02;;;;;;;4.13;2.95;;;24.60;99.90;;;;;;5053995;28;20202;-49
2022/05/11 10:32:52;;;;;;;5.68;3.50;;;24.80;99.90;;;;;;5034401;28;20200;-49
2022/05/11 10:35:27;;;;;;;4.70;3.05;;;24.50;99.90;;;;;;5034558;28;20178;-51
2022/05/11 10:38:05;;;;;;;6.00;3.20;;;24.40;99.90;;;;;;5034468;28;20621;-52
2022/05/11 10:41:07;;;;;;;6.93;3.50;;;24.80;99.90;;;;;;5046266;28;20221;-51
2022/05/11 10:43:51;;;;;;;5.30;3.50;;;24.80;99.90;;;;;;5054233;28;20224;-52
2022/05/11 10:46:24;;;;;;;6.20;3.13;;;24.80;99.90;;;;;;5054149;28;20171;-53
2022/05/11 10:49:08;;;;;;;5.80;2.80;;;24.80;99.90;;;;;;5054206;28;20198;-49
2022/05/11 10:52:06;;;;;;;7.85;3.60;;;24.70;99.90;;;;;;5054308;28;20254;-49
2022/05/11 10:54:57;;;;;;;7.55;3.17;;;24.90;99.90;;;;;;5054343;28;20171;-48
2022/05/11 10:57:27;;;;;;;6.35;3.22;;;25.10;99.90;;;;;;5054179;28;20174;-51
2022/05/11 11:00:12;;;;;;;7.15;3.10;;;25.10;99.90;;;;;;5054400;28;20162;-54
2022/05/11 11:02:51;;;;;;;6.32;3.20;;;25.00;99.90;;;;;;5054444;28;20174;-55
2022/05/11 11:05:19;;;;;;;5.85;2.72;;;25.10;99.90;;;;;;5054446;28;20631;-55
2022/05/11 11:08:00;;;;;;;3.60;2.95;;;25.20;99.90;;;;;;5054118;28;20205;-56
2022/05/11 11:10:39;;;;;;;7.03;3.17;;;25.10;99.90;;;;;;5053863;28;20213;-54
2022/05/11 11:13:10;;;;;;;5.00;3.20;;;25.40;99.90;;;;;;5052469;28;20167;-56
2022/05/11 11:15:40;;;;;;;5.57;3.05;;;25.10;99.90;;;;;;5052803;28;20801;-49
2022/05/11 11:18:06;;;;;;;6.13;3.30;;;25.30;99.90;;;;;;5053587;28;20170;-51
2022/05/11 11:20:37;;;;;;;8.98;2.95;;;25.30;99.90;;;;;;5053767;28;20187;-51
2022/05/11 11:23:16;;;;;;;4.07;2.95;;;25.30;99.90;;;;;;5053891;28;20249;-51
2022/05/11 11:25:52;;;;;;;5.22;3.20;;;25.40;99.90;;;;;;5053309;28;20166;-54
2022/05/11 11:28:25;;;;;;;6.65;3.00;;;25.50;99.90;;;;;;5052846;28;20167;-55
2022/05/11 11:31:00;;;;;;;4.22;3.45;;;25.60;99.90;;;;;;5053339;28;20705;-55
2022/05/11 11:33:30;;;;;;;8.52;3.20;;;25.50;99.90;;;;;;5053353;28;20651;-47
2022/05/11 11:36:25;;;;;;;5.60;3.35;;;25.70;99.90;;;;;;5053391;28;20162;-46
2022/05/11 11:38:53;;;;;;;8.82;3.05;;;25.80;99.90;;;;;;5053390;28;20182;-50
2022/05/11 11:41:23;;;;;;;6.20;3.40;;;25.70;99.90;;;;;;5053169;28;20158;-45
2022/05/11 11:43:49;;;;;;;7.68;3.22;;;26.00;99.90;;;;;;5053223;28;20223;-45
2022/05/11 11:46:40;;;;;;;7.38;3.05;;;26.00;99.90;;;;;;5053133;28;20289;-54
2022/05/11 11:49:32;;;;;;;13.57;3.80;;;25.90;99.90;;;;;;5053197;28;20217;-45
2022/05/11 11:52:06;;;;;;;5.90;3.30;;;26.00;99.90;;;;;;5052959;28;20167;-45
2022/05/11 11:54:38;;;;;;;4.78;3.00;;;26.10;99.90;;;;;;5052986;28;20172;-46
2022/05/11 11:57:12;;;;;;;4.55;2.80;;;26.00;99.90;;;;;;5052545;28;20516;-53
2022/05/11 11:59:41;;;;;;;9.50;3.33;;;26.00;99.90;;;;;;5053116;28;20249;-50
2022/05/11 12:02:32;;;;;;;6.82;3.28;;;26.30;99.90;;;;;;5052136;28;20249;-47
2022/05/11 12:05:04;;;;;;;12.82;3.63;;;26.30;99.90;;;;;;5051478;28;20651;-47
2022/05/11 12:16:10;;;;;;;4.38;2.90;;;26.60;99.90;;;;;;5053044;28;20177;-52
2022/05/11 12:18:38;;;;;;;4.50;3.25;;;26.50;99.90;;;;;;5046906;28;20167;-48
2022/05/11 12:21:09;;;;;;;4.20;3.20;;;26.70;99.90;;;;;;5049554;28;20189;-48
2022/05/11 12:23:38;;;;;;;6.65;3.22;;;26.80;99.90;;;;;;5052602;28;20273;-49
2022/05/11 12:26:10;;;;;;;5.50;3.45;;;26.70;99.90;;;;;;5051583;28;20179;-49
2022/05/11 12:28:40;;;;;;;5.22;3.20;;;26.70;99.90;;;;;;5053060;28;20219;-48
2022/05/11 12:31:07;;;;;;;4.20;2.80;;;26.70;99.90;;;;;;5051598;28;20186;-46
2022/05/11 12:33:36;;;;;;;6.80;3.25;;;26.90;99.90;;;;;;5052127;28;20620;-49
2022/05/11 12:36:03;;;;;;;8.48;3.00;;;26.90;99.90;;;;;;5052265;28;20587;-50
2022/05/11 12:38:38;;;;;;;4.85;2.78;;;26.90;99.90;;;;;;5052025;28;20643;-51
2022/05/11 12:41:18;;;;;;;3.72;3.35;;;27.00;99.90;;;;;;5052319;28;20176;-48
2022/05/11 12:43:56;;;;;;;6.53;3.08;;;27.00;99.90;;;;;;5052004;28;20162;-51
2022/05/11 12:46:22;;;;;;;6.72;3.10;;;27.10;99.90;;;;;;5051776;28;20188;-49
2022/05/11 12:48:59;;;;;;;5.18;3.58;;;27.00;99.90;;;;;;5052024;28;20176;-48
2022/05/11 12:51:31;;;;;;;9.20;3.40;;;27.20;99.90;;;;;;5051897;28;20193;-48
2022/05/11 12:54:00;;;;;;;8.75;3.40;;;27.10;99.90;;;;;;5051684;28;20570;-50
2022/05/11 12:56:32;;;;;;;5.38;3.20;;;27.20;99.90;;;;;;5051898;28;20200;-49
2022/05/11 12:59:19;;;;;;;8.88;3.20;;;27.20;99.90;;;;;;5051851;28;20177;-48
2022/05/11 13:01:46;;;;;;;5.47;3.28;;;27.40;99.90;;;;;;5051432;28;20609;-52
2022/05/11 13:04:20;;;;;;;7.00;3.40;;;27.40;99.90;;;;;;5051167;28;20632;-49
2022/05/11 13:06:49;;;;;;;6.43;2.95;;;27.40;99.90;;;;;;5052042;28;20231;-49
2022/05/11 13:09:24;;;;;;;8.75;2.92;;;27.50;99.90;;;;;;5052063;28;20352;-49
2022/05/11 13:11:50;;;;;;;3.78;2.80;;;27.50;99.90;;;;;;5052083;28;20260;-47
2022/05/11 13:14:19;;;;;;;4.45;2.92;;;27.70;99.90;;;;;;5051708;28;20170;-48
2022/05/11 13:16:54;;;;;;;4.10;3.17;;;27.60;99.90;;;;;;5050867;28;20186;-52
2022/05/11 13:19:33;;;;;;;4.85;3.15;;;27.80;99.90;;;;;;5051884;28;20173;-50
2022/05/11 13:22:09;;;;;;;8.68;3.28;;;27.80;99.90;;;;;;5051834;28;20208;-53
2022/05/11 13:24:59;;;;;;;7.47;3.20;;;27.70;99.90;;;;;;5051396;28;20174;-47
2022/05/11 13:27:35;;;;;;;6.70;3.00;;;27.90;99.90;;;;;;5051349;28;20181;-48
2022/05/11 13:30:16;;;;;;;6.00;3.40;;;28.10;99.90;;;;;;5051391;28;20685;-50
2022/05/11 13:32:49;;;;;;;5.82;2.85;;;27.90;99.90;;;;;;5051716;28;20166;-52
2022/05/11 13:35:16;;;;;;;5.82;2.95;;;27.90;99.90;;;;;;5051641;28;20189;-47